aviador You're here:

EGUL Decoded Metar

LAKENHEATH in ENGLAND
Report Time2017-07-25 19:58:00
UTC Time2017-07-25 20:29:48
Flight Rules vfr VFR
Wind090° at 03 kt
W.Decomp.*RWY 06: 2.6 kt HW 1.5 kt RCW
W.Rank090° ranks 25
Current wind is below 090° avg. (6.3)
Visibility9999 m
Phenomena:N/A
Clouds:N/A
CeilingNone
Temp16°C (ISA +1)
Dew Point16°C (100% RH)
QNH1013 hPa
Density Alt400 ft
Elevation33 ft
Report Wrong Elevation
Raw Report
EGUL 251958Z AUTO 09003KT 9999 CLR 16/16 A2992 RMK AO2 SLP135
T01600160=

Extra information for EGUL:More info

Metar Taf Metar & Taf Last 4 Metars F.Rules Stats Wind Profile Meteogram Temp Stats Airport Information Weather charts Add Link Nearby VenuesMetar ALERT Operation Metar Decoded Social comments